Terminal Aerodrome Forecast
Issued by NWS Wilmington, OH

Current Version | Previous Version | Text Only | Print | Product List | Glossary Off
Versions: 1 2 3 4 5 6 7 8 9 10 11 12 13

000
FTUS41 KILN 260520
TAFCMH
TAF
KCMH 260520Z 2606/2706 21005KT P6SM SKC
     FM261600 20006KT P6SM VCTS SCT035CB OVC090
     FM261800 21009G16KT P6SM VCTS BKN090CB
      TEMPO 2618/2622 3SM -TSRA BKN025CB
     FM262300 22007KT P6SM VCTS BKN035CB
     FM270200 22005KT P6SM SCT050 BKN200=

USA.gov is the U.S. government's official web portal to all federal, state and local government web resources and services.